sensor_id;sensor_type;location;lat;lon;timestamp;temperature;humidity
8939;DHT22;4504;48.810;9.172;2023-11-21T00:01:25;8.80;99.90
8939;DHT22;4504;48.810;9.172;2023-11-21T00:03:52;8.90;99.90
8939;DHT22;4504;48.810;9.172;2023-11-21T00:06:21;8.90;99.90
8939;DHT22;4504;48.810;9.172;2023-11-21T00:08:48;8.80;99.90
8939;DHT22;4504;48.810;9.172;2023-11-21T00:11:15;8.90;99.90
8939;DHT22;4504;48.810;9.172;2023-11-21T00:13:42;8.80;99.90
8939;DHT22;4504;48.810;9.172;2023-11-21T00:16:09;8.80;99.90
8939;DHT22;4504;48.810;9.172;2023-11-21T00:18:36;8.70;99.90
8939;DHT22;4504;48.810;9.172;2023-11-21T00:21:03;8.80;99.90
8939;DHT22;4504;48.810;9.172;2023-11-21T00:23:32;8.80;99.90
8939;DHT22;4504;48.810;9.172;2023-11-21T00:25:59;8.70;99.90
8939;DHT22;4504;48.810;9.172;2023-11-21T00:28:26;8.70;99.90
8939;DHT22;4504;48.810;9.172;2023-11-21T00:30:53;8.70;99.90
8939;DHT22;4504;48.810;9.172;2023-11-21T00:33:20;8.70;99.90
8939;DHT22;4504;48.810;9.172;2023-11-21T00:35:47;8.70;99.90
8939;DHT22;4504;48.810;9.172;2023-11-21T00:38:14;8.70;99.90
8939;DHT22;4504;48.810;9.172;2023-11-21T00:40:42;8.80;99.90
8939;DHT22;4504;48.810;9.172;2023-11-21T00:43:09;8.80;99.90
8939;DHT22;4504;48.810;9.172;2023-11-21T00:45:36;8.80;99.90
8939;DHT22;4504;48.810;9.172;2023-11-21T00:48:04;8.80;99.90
8939;DHT22;4504;48.810;9.172;2023-11-21T00:50:32;8.70;99.90
8939;DHT22;4504;48.810;9.172;2023-11-21T00:52:59;8.70;99.90
8939;DHT22;4504;48.810;9.172;2023-11-21T00:55:27;8.80;99.90
8939;DHT22;4504;48.810;9.172;2023-11-21T00:57:57;8.90;99.90
8939;DHT22;4504;48.810;9.172;2023-11-21T01:00:24;8.90;99.90
8939;DHT22;4504;48.810;9.172;2023-11-21T01:02:51;8.90;99.90
8939;DHT22;4504;48.810;9.172;2023-11-21T01:05:18;8.80;99.90
8939;DHT22;4504;48.810;9.172;2023-11-21T01:07:45;8.80;99.90
8939;DHT22;4504;48.810;9.172;2023-11-21T01:10:12;8.80;99.90
8939;DHT22;4504;48.810;9.172;2023-11-21T01:12:39;8.90;99.90
8939;DHT22;4504;48.810;9.172;2023-11-21T01:15:09;8.90;99.90
8939;DHT22;4504;48.810;9.172;2023-11-21T01:17:38;8.90;99.90
8939;DHT22;4504;48.810;9.172;2023-11-21T01:20:07;8.90;99.90
8939;DHT22;4504;48.810;9.172;2023-11-21T01:22:37;8.90;99.90
8939;DHT22;4504;48.810;9.172;2023-11-21T01:25:05;8.80;99.90
8939;DHT22;4504;48.810;9.172;2023-11-21T01:27:33;8.80;99.90
8939;DHT22;4504;48.810;9.172;2023-11-21T01:30:01;8.80;99.90
8939;DHT22;4504;48.810;9.172;2023-11-21T01:32:31;8.80;99.90
8939;DHT22;4504;48.810;9.172;2023-11-21T01:34:58;8.70;99.90
8939;DHT22;4504;48.810;9.172;2023-11-21T01:37:25;8.70;99.90
8939;DHT22;4504;48.810;9.172;2023-11-21T01:39:53;8.80;99.90
8939;DHT22;4504;48.810;9.172;2023-11-21T01:42:21;8.80;99.90
8939;DHT22;4504;48.810;9.172;2023-11-21T01:44:48;8.80;99.90
8939;DHT22;4504;48.810;9.172;2023-11-21T01:47:16;8.90;99.90
8939;DHT22;4504;48.810;9.172;2023-11-21T01:49:45;8.80;99.90
8939;DHT22;4504;48.810;9.172;2023-11-21T01:52:13;8.90;99.90
8939;DHT22;4504;48.810;9.172;2023-11-21T01:54:41;9.00;99.90
8939;DHT22;4504;48.810;9.172;2023-11-21T01:57:08;9.00;99.90
8939;DHT22;4504;48.810;9.172;2023-11-21T01:59:36;9.00;99.90
8939;DHT22;4504;48.810;9.172;2023-11-21T02:02:05;9.00;99.90
8939;DHT22;4504;48.810;9.172;2023-11-21T02:04:33;8.90;99.90
8939;DHT22;4504;48.810;9.172;2023-11-21T02:07:03;8.90;99.90
8939;DHT22;4504;48.810;9.172;2023-11-21T02:09:31;8.90;99.90
8939;DHT22;4504;48.810;9.172;2023-11-21T02:11:59;9.00;99.90
8939;DHT22;4504;48.810;9.172;2023-11-21T02:14:28;8.90;99.90
8939;DHT22;4504;48.810;9.172;2023-11-21T02:16:56;8.90;99.90
8939;DHT22;4504;48.810;9.172;2023-11-21T02:19:23;8.90;99.90
8939;DHT22;4504;48.810;9.172;2023-11-21T02:21:52;8.90;99.90
8939;DHT22;4504;48.810;9.172;2023-11-21T02:24:21;9.00;99.90
8939;DHT22;4504;48.810;9.172;2023-11-21T02:26:48;8.90;99.90
8939;DHT22;4504;48.810;9.172;2023-11-21T02:29:17;8.80;99.90
8939;DHT22;4504;48.810;9.172;2023-11-21T02:31:47;8.90;99.90
8939;DHT22;4504;48.810;9.172;2023-11-21T02:34:16;8.90;99.90
8939;DHT22;4504;48.810;9.172;2023-11-21T02:36:43;8.90;99.90
8939;DHT22;4504;48.810;9.172;2023-11-21T02:39:11;8.90;99.90
8939;DHT22;4504;48.810;9.172;2023-11-21T02:41:40;9.00;99.90
8939;DHT22;4504;48.810;9.172;2023-11-21T02:44:07;8.90;99.90
8939;DHT22;4504;48.810;9.172;2023-11-21T02:46:36;8.90;99.90
8939;DHT22;4504;48.810;9.172;2023-11-21T02:49:03;8.90;99.90
8939;DHT22;4504;48.810;9.172;2023-11-21T02:51:32;8.90;99.90
8939;DHT22;4504;48.810;9.172;2023-11-21T02:54:00;8.90;99.90
8939;DHT22;4504;48.810;9.172;2023-11-21T02:56:34;8.90;99.90
8939;DHT22;4504;48.810;9.172;2023-11-21T02:59:04;8.90;99.90
8939;DHT22;4504;48.810;9.172;2023-11-21T03:01:31;9.00;99.90
8939;DHT22;4504;48.810;9.172;2023-11-21T03:03:58;9.00;99.90
8939;DHT22;4504;48.810;9.172;2023-11-21T03:06:25;9.00;99.90
8939;DHT22;4504;48.810;9.172;2023-11-21T03:08:52;9.00;99.90
8939;DHT22;4504;48.810;9.172;2023-11-21T03:11:19;9.00;99.90
8939;DHT22;4504;48.810;9.172;2023-11-21T03:13:46;9.00;99.90
8939;DHT22;4504;48.810;9.172;2023-11-21T03:16:16;8.90;99.90
8939;DHT22;4504;48.810;9.172;2023-11-21T03:18:43;8.90;99.90
8939;DHT22;4504;48.810;9.172;2023-11-21T03:21:10;8.80;99.90
8939;DHT22;4504;48.810;9.172;2023-11-21T03:23:37;8.80;99.90
8939;DHT22;4504;48.810;9.172;2023-11-21T03:26:05;8.80;99.90
8939;DHT22;4504;48.810;9.172;2023-11-21T03:28:35;8.80;99.90
8939;DHT22;4504;48.810;9.172;2023-11-21T03:31:02;8.80;99.90
8939;DHT22;4504;48.810;9.172;2023-11-21T03:33:31;8.80;99.90
8939;DHT22;4504;48.810;9.172;2023-11-21T03:35:58;8.80;99.90
8939;DHT22;4504;48.810;9.172;2023-11-21T03:38:26;8.70;99.90
8939;DHT22;4504;48.810;9.172;2023-11-21T03:40:53;8.70;99.90
8939;DHT22;4504;48.810;9.172;2023-11-21T03:43:20;8.80;99.90
8939;DHT22;4504;48.810;9.172;2023-11-21T03:45:47;8.80;99.90
8939;DHT22;4504;48.810;9.172;2023-11-21T03:48:14;8.80;99.90
8939;DHT22;4504;48.810;9.172;2023-11-21T03:50:43;8.90;99.90
8939;DHT22;4504;48.810;9.172;2023-11-21T03:53:10;8.80;99.90
8939;DHT22;4504;48.810;9.172;2023-11-21T03:55:37;8.80;99.90
8939;DHT22;4504;48.810;9.172;2023-11-21T03:58:04;8.80;99.90
8939;DHT22;4504;48.810;9.172;2023-11-21T04:00:31;8.80;99.90
8939;DHT22;4504;48.810;9.172;2023-11-21T04:02:58;8.90;99.90
8939;DHT22;4504;48.810;9.172;2023-11-21T04:05:25;8.90;99.90
8939;DHT22;4504;48.810;9.172;2023-11-21T04:07:53;8.80;99.90
8939;DHT22;4504;48.810;9.172;2023-11-21T04:10:20;8.80;99.90
8939;DHT22;4504;48.810;9.172;2023-11-21T04:12:47;8.80;99.90
8939;DHT22;4504;48.810;9.172;2023-11-21T04:15:14;8.90;99.90
8939;DHT22;4504;48.810;9.172;2023-11-21T04:17:42;8.80;99.90
8939;DHT22;4504;48.810;9.172;2023-11-21T04:20:11;8.80;99.90
8939;DHT22;4504;48.810;9.172;2023-11-21T04:22:38;8.80;99.90
8939;DHT22;4504;48.810;9.172;2023-11-21T04:25:09;8.90;99.90
8939;DHT22;4504;48.810;9.172;2023-11-21T04:27:39;8.70;99.90
8939;DHT22;4504;48.810;9.172;2023-11-21T04:30:09;8.70;99.90
8939;DHT22;4504;48.810;9.172;2023-11-21T04:32:37;8.60;99.90
8939;DHT22;4504;48.810;9.172;2023-11-21T04:35:05;8.60;99.90
8939;DHT22;4504;48.810;9.172;2023-11-21T04:37:34;8.60;99.90
8939;DHT22;4504;48.810;9.172;2023-11-21T04:40:01;8.70;99.90
8939;DHT22;4504;48.810;9.172;2023-11-21T04:42:34;8.70;99.90
8939;DHT22;4504;48.810;9.172;2023-11-21T04:45:01;8.70;99.90
8939;DHT22;4504;48.810;9.172;2023-11-21T04:47:33;8.80;99.90
8939;DHT22;4504;48.810;9.172;2023-11-21T04:50:00;8.70;99.90
8939;DHT22;4504;48.810;9.172;2023-11-21T04:52:27;8.80;99.90
8939;DHT22;4504;48.810;9.172;2023-11-21T04:54:53;8.80;99.90
8939;DHT22;4504;48.810;9.172;2023-11-21T04:57:22;8.90;99.90
8939;DHT22;4504;48.810;9.172;2023-11-21T04:59:51;8.90;99.90
8939;DHT22;4504;48.810;9.172;2023-11-21T05:02:18;8.90;99.90
8939;DHT22;4504;48.810;9.172;2023-11-21T05:04:46;8.90;99.90
8939;DHT22;4504;48.810;9.172;2023-11-21T05:07:13;8.90;99.90
8939;DHT22;4504;48.810;9.172;2023-11-21T05:09:42;8.90;99.90
8939;DHT22;4504;48.810;9.172;2023-11-21T05:12:09;8.80;99.90
8939;DHT22;4504;48.810;9.172;2023-11-21T05:14:37;8.80;99.90
8939;DHT22;4504;48.810;9.172;2023-11-21T05:17:06;8.70;99.90
8939;DHT22;4504;48.810;9.172;2023-11-21T05:19:33;8.70;99.90
8939;DHT22;4504;48.810;9.172;2023-11-21T05:22:01;8.60;99.90
8939;DHT22;4504;48.810;9.172;2023-11-21T05:24:28;8.60;99.90
8939;DHT22;4504;48.810;9.172;2023-11-21T05:26:55;8.60;99.90
8939;DHT22;4504;48.810;9.172;2023-11-21T05:29:23;8.60;99.90
8939;DHT22;4504;48.810;9.172;2023-11-21T05:31:51;8.60;99.90
8939;DHT22;4504;48.810;9.172;2023-11-21T05:34:20;8.60;99.90
8939;DHT22;4504;48.810;9.172;2023-11-21T05:36:49;8.50;99.90
8939;DHT22;4504;48.810;9.172;2023-11-21T05:39:16;8.50;99.90
8939;DHT22;4504;48.810;9.172;2023-11-21T05:41:44;8.60;99.90
8939;DHT22;4504;48.810;9.172;2023-11-21T05:44:11;8.50;99.90
8939;DHT22;4504;48.810;9.172;2023-11-21T05:46:40;8.50;99.90
8939;DHT22;4504;48.810;9.172;2023-11-21T05:49:08;8.60;99.90
8939;DHT22;4504;48.810;9.172;2023-11-21T05:51:37;8.50;99.90
8939;DHT22;4504;48.810;9.172;2023-11-21T05:54:04;8.60;99.90
8939;DHT22;4504;48.810;9.172;2023-11-21T05:56:31;8.70;99.90
8939;DHT22;4504;48.810;9.172;2023-11-21T05:58:58;8.70;99.90
8939;DHT22;4504;48.810;9.172;2023-11-21T06:01:25;8.60;99.90
8939;DHT22;4504;48.810;9.172;2023-11-21T06:03:53;8.60;99.90
8939;DHT22;4504;48.810;9.172;2023-11-21T06:06:21;8.60;99.90
8939;DHT22;4504;48.810;9.172;2023-11-21T06:08:52;8.70;99.90
8939;DHT22;4504;48.810;9.172;2023-11-21T06:11:19;8.70;99.90
8939;DHT22;4504;48.810;9.172;2023-11-21T06:13:46;8.70;99.90
8939;DHT22;4504;48.810;9.172;2023-11-21T06:16:13;8.60;99.90
8939;DHT22;4504;48.810;9.172;2023-11-21T06:18:42;8.70;99.90
8939;DHT22;4504;48.810;9.172;2023-11-21T06:21:10;8.60;99.90
8939;DHT22;4504;48.810;9.172;2023-11-21T06:23:37;8.60;99.90
8939;DHT22;4504;48.810;9.172;2023-11-21T06:26:06;8.60;99.90
8939;DHT22;4504;48.810;9.172;2023-11-21T06:28:34;8.70;99.90
8939;DHT22;4504;48.810;9.172;2023-11-21T06:31:02;8.60;99.90
8939;DHT22;4504;48.810;9.172;2023-11-21T06:33:30;8.80;99.90
8939;DHT22;4504;48.810;9.172;2023-11-21T06:35:57;8.80;99.90
8939;DHT22;4504;48.810;9.172;2023-11-21T06:38:24;9.00;99.90
8939;DHT22;4504;48.810;9.172;2023-11-21T06:40:53;8.90;99.90
8939;DHT22;4504;48.810;9.172;2023-11-21T06:43:22;8.90;99.90
8939;DHT22;4504;48.810;9.172;2023-11-21T06:45:49;8.80;99.90
8939;DHT22;4504;48.810;9.172;2023-11-21T06:48:16;8.70;99.90
8939;DHT22;4504;48.810;9.172;2023-11-21T06:50:43;8.80;99.90
8939;DHT22;4504;48.810;9.172;2023-11-21T06:53:10;9.00;99.90
8939;DHT22;4504;48.810;9.172;2023-11-21T06:55:37;9.00;99.90
8939;DHT22;4504;48.810;9.172;2023-11-21T06:58:04;9.00;99.90
8939;DHT22;4504;48.810;9.172;2023-11-21T07:00:33;9.00;99.90
8939;DHT22;4504;48.810;9.172;2023-11-21T07:03:00;8.90;99.90
8939;DHT22;4504;48.810;9.172;2023-11-21T07:05:27;8.80;99.90
8939;DHT22;4504;48.810;9.172;2023-11-21T07:07:54;8.80;99.90
8939;DHT22;4504;48.810;9.172;2023-11-21T07:10:21;8.80;99.90
8939;DHT22;4504;48.810;9.172;2023-11-21T07:12:48;8.90;99.90
8939;DHT22;4504;48.810;9.172;2023-11-21T07:15:16;8.90;99.90
8939;DHT22;4504;48.810;9.172;2023-11-21T07:17:46;9.00;99.90
8939;DHT22;4504;48.810;9.172;2023-11-21T07:20:14;9.00;99.90
8939;DHT22;4504;48.810;9.172;2023-11-21T07:22:42;9.00;99.90
8939;DHT22;4504;48.810;9.172;2023-11-21T07:25:10;9.00;99.90
8939;DHT22;4504;48.810;9.172;2023-11-21T07:27:37;9.00;99.90
8939;DHT22;4504;48.810;9.172;2023-11-21T07:30:05;8.90;99.90
8939;DHT22;4504;48.810;9.172;2023-11-21T07:32:34;9.00;99.90
8939;DHT22;4504;48.810;9.172;2023-11-21T07:35:03;9.00;99.90
8939;DHT22;4504;48.810;9.172;2023-11-21T07:37:30;9.00;99.90
8939;DHT22;4504;48.810;9.172;2023-11-21T07:39:57;8.90;99.90
8939;DHT22;4504;48.810;9.172;2023-11-21T07:42:24;9.00;99.90
8939;DHT22;4504;48.810;9.172;2023-11-21T07:44:52;8.90;99.90
8939;DHT22;4504;48.810;9.172;2023-11-21T07:47:18;8.90;99.90
8939;DHT22;4504;48.810;9.172;2023-11-21T07:49:45;8.80;99.90
8939;DHT22;4504;48.810;9.172;2023-11-21T07:52:14;8.80;99.90
8939;DHT22;4504;48.810;9.172;2023-11-21T07:54:44;8.90;99.90
8939;DHT22;4504;48.810;9.172;2023-11-21T07:57:11;9.10;99.90
8939;DHT22;4504;48.810;9.172;2023-11-21T07:59:39;9.10;99.90
8939;DHT22;4504;48.810;9.172;2023-11-21T08:02:06;9.10;99.90
8939;DHT22;4504;48.810;9.172;2023-11-21T08:04:33;9.00;99.90
8939;DHT22;4504;48.810;9.172;2023-11-21T08:07:01;9.00;99.90
8939;DHT22;4504;48.810;9.172;2023-11-21T08:09:31;9.00;99.90
8939;DHT22;4504;48.810;9.172;2023-11-21T08:11:58;9.00;99.90
8939;DHT22;4504;48.810;9.172;2023-11-21T08:14:26;9.00;99.90
8939;DHT22;4504;48.810;9.172;2023-11-21T08:16:53;9.10;99.90
8939;DHT22;4504;48.810;9.172;2023-11-21T08:19:23;9.00;99.90
8939;DHT22;4504;48.810;9.172;2023-11-21T08:21:52;9.10;99.90
8939;DHT22;4504;48.810;9.172;2023-11-21T08:24:20;9.10;99.90
8939;DHT22;4504;48.810;9.172;2023-11-21T08:26:49;9.20;99.90
8939;DHT22;4504;48.810;9.172;2023-11-21T08:29:16;9.30;99.90
8939;DHT22;4504;48.810;9.172;2023-11-21T08:31:44;9.30;99.90
8939;DHT22;4504;48.810;9.172;2023-11-21T08:34:12;9.30;99.90
8939;DHT22;4504;48.810;9.172;2023-11-21T08:36:41;9.30;99.90
8939;DHT22;4504;48.810;9.172;2023-11-21T08:39:09;9.20;99.90
8939;DHT22;4504;48.810;9.172;2023-11-21T08:41:36;9.30;99.90
8939;DHT22;4504;48.810;9.172;2023-11-21T08:44:05;9.50;99.90
8939;DHT22;4504;48.810;9.172;2023-11-21T08:46:33;9.50;99.90
8939;DHT22;4504;48.810;9.172;2023-11-21T08:49:02;9.30;99.90
8939;DHT22;4504;48.810;9.172;2023-11-21T08:51:29;9.30;99.90
8939;DHT22;4504;48.810;9.172;2023-11-21T08:53:57;9.30;99.90
8939;DHT22;4504;48.810;9.172;2023-11-21T08:56:27;9.40;99.90
8939;DHT22;4504;48.810;9.172;2023-11-21T08:58:54;9.60;99.90
8939;DHT22;4504;48.810;9.172;2023-11-21T09:01:22;9.80;99.90
8939;DHT22;4504;48.810;9.172;2023-11-21T09:03:50;9.60;99.90
8939;DHT22;4504;48.810;9.172;2023-11-21T09:06:17;9.50;99.90
8939;DHT22;4504;48.810;9.172;2023-11-21T09:08:44;9.50;99.90
8939;DHT22;4504;48.810;9.172;2023-11-21T09:11:11;9.60;99.90
8939;DHT22;4504;48.810;9.172;2023-11-21T09:13:39;9.80;99.90
8939;DHT22;4504;48.810;9.172;2023-11-21T09:16:07;9.90;99.90
8939;DHT22;4504;48.810;9.172;2023-11-21T09:18:35;10.10;99.90
8939;DHT22;4504;48.810;9.172;2023-11-21T09:21:02;10.10;99.90
8939;DHT22;4504;48.810;9.172;2023-11-21T09:23:30;10.10;99.90
8939;DHT22;4504;48.810;9.172;2023-11-21T09:25:57;10.30;99.90
8939;DHT22;4504;48.810;9.172;2023-11-21T09:28:26;10.40;99.90
8939;DHT22;4504;48.810;9.172;2023-11-21T09:30:53;10.30;99.90
8939;DHT22;4504;48.810;9.172;2023-11-21T09:33:20;10.20;99.90
8939;DHT22;4504;48.810;9.172;2023-11-21T09:35:49;9.90;99.90
8939;DHT22;4504;48.810;9.172;2023-11-21T09:38:16;10.00;99.90
8939;DHT22;4504;48.810;9.172;2023-11-21T09:40:43;9.80;99.90
8939;DHT22;4504;48.810;9.172;2023-11-21T09:43:16;9.70;99.90
8939;DHT22;4504;48.810;9.172;2023-11-21T09:45:45;9.60;99.90
8939;DHT22;4504;48.810;9.172;2023-11-21T09:48:14;9.60;99.90
8939;DHT22;4504;48.810;9.172;2023-11-21T09:50:42;9.60;99.90
8939;DHT22;4504;48.810;9.172;2023-11-21T09:53:13;9.80;99.90
8939;DHT22;4504;48.810;9.172;2023-11-21T09:55:44;9.80;99.90
8939;DHT22;4504;48.810;9.172;2023-11-21T09:58:12;10.10;99.90
8939;DHT22;4504;48.810;9.172;2023-11-21T10:00:41;10.10;99.90
8939;DHT22;4504;48.810;9.172;2023-11-21T10:03:09;9.80;99.90
8939;DHT22;4504;48.810;9.172;2023-11-21T10:05:37;9.70;99.90
8939;DHT22;4504;48.810;9.172;2023-11-21T10:08:07;9.80;99.90
8939;DHT22;4504;48.810;9.172;2023-11-21T10:10:37;9.90;99.90
8939;DHT22;4504;48.810;9.172;2023-11-21T10:13:07;9.80;99.90
8939;DHT22;4504;48.810;9.172;2023-11-21T10:15:36;9.70;99.90
8939;DHT22;4504;48.810;9.172;2023-11-21T10:18:05;9.60;99.90
8939;DHT22;4504;48.810;9.172;2023-11-21T10:20:34;9.40;99.90
8939;DHT22;4504;48.810;9.172;2023-11-21T10:23:04;9.50;99.90
8939;DHT22;4504;48.810;9.172;2023-11-21T10:25:33;9.50;99.90
8939;DHT22;4504;48.810;9.172;2023-11-21T10:28:04;9.40;99.90
8939;DHT22;4504;48.810;9.172;2023-11-21T10:30:33;9.10;99.90
8939;DHT22;4504;48.810;9.172;2023-11-21T10:33:03;9.00;99.90
8939;DHT22;4504;48.810;9.172;2023-11-21T10:35:43;9.00;99.90
8939;DHT22;4504;48.810;9.172;2023-11-21T10:38:14;9.10;99.90
8939;DHT22;4504;48.810;9.172;2023-11-21T10:40:41;9.20;99.90
8939;DHT22;4504;48.810;9.172;2023-11-21T10:43:11;9.10;99.90
8939;DHT22;4504;48.810;9.172;2023-11-21T10:45:41;9.20;99.90
8939;DHT22;4504;48.810;9.172;2023-11-21T10:48:09;9.20;99.90
8939;DHT22;4504;48.810;9.172;2023-11-21T10:50:37;9.30;99.90
8939;DHT22;4504;48.810;9.172;2023-11-21T10:53:04;9.40;99.90
8939;DHT22;4504;48.810;9.172;2023-11-21T10:55:32;9.40;99.90
8939;DHT22;4504;48.810;9.172;2023-11-21T10:58:01;9.50;99.90
8939;DHT22;4504;48.810;9.172;2023-11-21T11:00:32;9.50;99.90
8939;DHT22;4504;48.810;9.172;2023-11-21T11:03:00;9.60;99.90
8939;DHT22;4504;48.810;9.172;2023-11-21T11:05:28;9.90;99.90
8939;DHT22;4504;48.810;9.172;2023-11-21T11:07:59;10.00;99.90
8939;DHT22;4504;48.810;9.172;2023-11-21T11:10:27;10.00;99.90
8939;DHT22;4504;48.810;9.172;2023-11-21T11:12:56;10.00;99.90
8939;DHT22;4504;48.810;9.172;2023-11-21T11:15:24;10.20;99.90
8939;DHT22;4504;48.810;9.172;2023-11-21T11:17:54;10.20;99.90
8939;DHT22;4504;48.810;9.172;2023-11-21T11:20:25;10.20;99.90
8939;DHT22;4504;48.810;9.172;2023-11-21T11:23:04;10.30;99.90
8939;DHT22;4504;48.810;9.172;2023-11-21T11:25:46;10.20;99.90
8939;DHT22;4504;48.810;9.172;2023-11-21T11:28:18;10.30;99.90
8939;DHT22;4504;48.810;9.172;2023-11-21T11:30:53;10.50;99.90
8939;DHT22;4504;48.810;9.172;2023-11-21T11:33:31;10.20;99.90
8939;DHT22;4504;48.810;9.172;2023-11-21T11:36:05;10.10;99.90
8939;DHT22;4504;48.810;9.172;2023-11-21T11:38:34;10.20;99.90
8939;DHT22;4504;48.810;9.172;2023-11-21T11:41:03;10.20;99.90
8939;DHT22;4504;48.810;9.172;2023-11-21T11:43:31;10.30;99.90
8939;DHT22;4504;48.810;9.172;2023-11-21T11:46:05;10.10;99.90
8939;DHT22;4504;48.810;9.172;2023-11-21T11:48:37;10.20;99.90
8939;DHT22;4504;48.810;9.172;2023-11-21T11:51:10;10.20;99.90
8939;DHT22;4504;48.810;9.172;2023-11-21T11:53:38;10.50;99.90
8939;DHT22;4504;48.810;9.172;2023-11-21T11:56:23;10.30;99.90
8939;DHT22;4504;48.810;9.172;2023-11-21T11:58:52;10.20;99.90
8939;DHT22;4504;48.810;9.172;2023-11-21T12:01:20;10.10;99.90
8939;DHT22;4504;48.810;9.172;2023-11-21T12:07:05;10.20;99.90
8939;DHT22;4504;48.810;9.172;2023-11-21T12:09:33;10.40;99.90
8939;DHT22;4504;48.810;9.172;2023-11-21T12:12:02;10.50;99.90
8939;DHT22;4504;48.810;9.172;2023-11-21T12:14:31;10.60;99.90
8939;DHT22;4504;48.810;9.172;2023-11-21T12:16:58;10.60;99.90
8939;DHT22;4504;48.810;9.172;2023-11-21T12:19:25;10.70;99.90
8939;DHT22;4504;48.810;9.172;2023-11-21T12:21:53;10.70;99.90
8939;DHT22;4504;48.810;9.172;2023-11-21T12:24:22;10.80;99.90
8939;DHT22;4504;48.810;9.172;2023-11-21T12:26:49;10.70;99.90
8939;DHT22;4504;48.810;9.172;2023-11-21T12:29:16;10.60;99.90
8939;DHT22;4504;48.810;9.172;2023-11-21T12:31:44;10.30;99.90
8939;DHT22;4504;48.810;9.172;2023-11-21T12:34:11;10.10;99.90
8939;DHT22;4504;48.810;9.172;2023-11-21T12:36:39;10.00;99.90
8939;DHT22;4504;48.810;9.172;2023-11-21T12:39:06;10.00;99.90
8939;DHT22;4504;48.810;9.172;2023-11-21T12:41:36;10.00;99.90
8939;DHT22;4504;48.810;9.172;2023-11-21T12:44:03;9.90;99.90
8939;DHT22;4504;48.810;9.172;2023-11-21T12:46:30;9.80;99.90
8939;DHT22;4504;48.810;9.172;2023-11-21T12:49:00;9.90;99.90
8939;DHT22;4504;48.810;9.172;2023-11-21T12:51:27;10.00;99.90
8939;DHT22;4504;48.810;9.172;2023-11-21T12:53:55;10.10;99.90
8939;DHT22;4504;48.810;9.172;2023-11-21T12:56:22;10.10;99.90
8939;DHT22;4504;48.810;9.172;2023-11-21T12:58:54;10.10;99.90
8939;DHT22;4504;48.810;9.172;2023-11-21T13:01:26;10.40;99.90
8939;DHT22;4504;48.810;9.172;2023-11-21T13:03:57;10.50;99.90
8939;DHT22;4504;48.810;9.172;2023-11-21T13:06:25;10.50;99.90
8939;DHT22;4504;48.810;9.172;2023-11-21T13:08:52;10.60;99.90
8939;DHT22;4504;48.810;9.172;2023-11-21T13:11:20;10.40;99.90
8939;DHT22;4504;48.810;9.172;2023-11-21T13:13:52;10.00;99.90
8939;DHT22;4504;48.810;9.172;2023-11-21T13:16:20;9.60;99.90
8939;DHT22;4504;48.810;9.172;2023-11-21T13:18:47;9.30;99.90
8939;DHT22;4504;48.810;9.172;2023-11-21T13:21:14;9.20;99.90
8939;DHT22;4504;48.810;9.172;2023-11-21T13:23:43;9.20;99.90
8939;DHT22;4504;48.810;9.172;2023-11-21T13:26:12;9.00;99.90
8939;DHT22;4504;48.810;9.172;2023-11-21T13:28:40;9.00;99.90
8939;DHT22;4504;48.810;9.172;2023-11-21T13:31:13;8.90;99.90
8939;DHT22;4504;48.810;9.172;2023-11-21T13:33:52;8.90;99.90
8939;DHT22;4504;48.810;9.172;2023-11-21T13:36:22;8.90;99.90
8939;DHT22;4504;48.810;9.172;2023-11-21T13:38:49;8.90;99.90
8939;DHT22;4504;48.810;9.172;2023-11-21T13:41:18;8.90;99.90
8939;DHT22;4504;48.810;9.172;2023-11-21T13:43:45;9.00;99.90
8939;DHT22;4504;48.810;9.172;2023-11-21T13:46:19;9.00;99.90
8939;DHT22;4504;48.810;9.172;2023-11-21T13:48:49;9.00;99.90
8939;DHT22;4504;48.810;9.172;2023-11-21T13:51:21;9.00;99.90
8939;DHT22;4504;48.810;9.172;2023-11-21T13:53:57;9.00;99.90
8939;DHT22;4504;48.810;9.172;2023-11-21T13:56:24;9.00;99.90
8939;DHT22;4504;48.810;9.172;2023-11-21T13:58:54;9.00;99.90
8939;DHT22;4504;48.810;9.172;2023-11-21T14:01:24;9.10;99.90
8939;DHT22;4504;48.810;9.172;2023-11-21T14:04:13;9.10;99.90
8939;DHT22;4504;48.810;9.172;2023-11-21T14:06:46;9.10;99.90
8939;DHT22;4504;48.810;9.172;2023-11-21T14:09:15;9.10;99.90
8939;DHT22;4504;48.810;9.172;2023-11-21T14:11:49;9.10;99.90
8939;DHT22;4504;48.810;9.172;2023-11-21T14:14:18;9.10;99.90
8939;DHT22;4504;48.810;9.172;2023-11-21T14:16:46;9.20;99.90
8939;DHT22;4504;48.810;9.172;2023-11-21T14:19:13;9.20;99.90
8939;DHT22;4504;48.810;9.172;2023-11-21T14:21:43;9.30;99.90
8939;DHT22;4504;48.810;9.172;2023-11-21T14:24:10;9.40;99.90
8939;DHT22;4504;48.810;9.172;2023-11-21T14:26:40;9.50;99.90
8939;DHT22;4504;48.810;9.172;2023-11-21T14:29:07;9.40;99.90
8939;DHT22;4504;48.810;9.172;2023-11-21T14:31:35;9.40;99.90
8939;DHT22;4504;48.810;9.172;2023-11-21T14:34:04;9.30;99.90
8939;DHT22;4504;48.810;9.172;2023-11-21T14:36:32;9.30;99.90
8939;DHT22;4504;48.810;9.172;2023-11-21T14:38:59;9.30;99.90
8939;DHT22;4504;48.810;9.172;2023-11-21T14:41:26;9.30;99.90
8939;DHT22;4504;48.810;9.172;2023-11-21T14:43:54;9.30;99.90
8939;DHT22;4504;48.810;9.172;2023-11-21T14:46:23;9.30;99.90
8939;DHT22;4504;48.810;9.172;2023-11-21T14:48:50;9.50;99.90
8939;DHT22;4504;48.810;9.172;2023-11-21T14:51:28;9.50;99.90
8939;DHT22;4504;48.810;9.172;2023-11-21T14:53:57;9.50;99.90
8939;DHT22;4504;48.810;9.172;2023-11-21T14:56:31;9.40;99.90
8939;DHT22;4504;48.810;9.172;2023-11-21T14:59:00;9.40;99.90
8939;DHT22;4504;48.810;9.172;2023-11-21T15:01:32;9.40;99.90
8939;DHT22;4504;48.810;9.172;2023-11-21T15:04:10;9.40;99.90
8939;DHT22;4504;48.810;9.172;2023-11-21T15:06:48;9.50;99.90
8939;DHT22;4504;48.810;9.172;2023-11-21T15:09:15;9.50;99.90
8939;DHT22;4504;48.810;9.172;2023-11-21T15:12:02;9.40;99.90
8939;DHT22;4504;48.810;9.172;2023-11-21T15:14:40;9.40;99.90
8939;DHT22;4504;48.810;9.172;2023-11-21T15:17:07;9.40;99.90
8939;DHT22;4504;48.810;9.172;2023-11-21T15:19:34;9.40;99.90
8939;DHT22;4504;48.810;9.172;2023-11-21T15:22:04;9.30;99.90
8939;DHT22;4504;48.810;9.172;2023-11-21T15:24:32;9.30;99.90
8939;DHT22;4504;48.810;9.172;2023-11-21T15:26:59;9.30;99.90
8939;DHT22;4504;48.810;9.172;2023-11-21T15:29:28;9.30;99.90
8939;DHT22;4504;48.810;9.172;2023-11-21T15:31:55;9.30;99.90
8939;DHT22;4504;48.810;9.172;2023-11-21T15:34:22;9.30;99.90
8939;DHT22;4504;48.810;9.172;2023-11-21T15:36:51;9.30;99.90
8939;DHT22;4504;48.810;9.172;2023-11-21T15:39:21;9.40;99.90
8939;DHT22;4504;48.810;9.172;2023-11-21T15:41:51;9.30;99.90
8939;DHT22;4504;48.810;9.172;2023-11-21T15:44:18;9.30;99.90
8939;DHT22;4504;48.810;9.172;2023-11-21T15:46:45;9.30;99.90
8939;DHT22;4504;48.810;9.172;2023-11-21T15:49:13;9.20;99.90
8939;DHT22;4504;48.810;9.172;2023-11-21T15:51:44;9.20;99.90
8939;DHT22;4504;48.810;9.172;2023-11-21T15:54:12;9.10;99.90
8939;DHT22;4504;48.810;9.172;2023-11-21T15:56:41;9.10;99.90
8939;DHT22;4504;48.810;9.172;2023-11-21T15:59:08;9.10;99.90
8939;DHT22;4504;48.810;9.172;2023-11-21T16:01:36;9.10;99.90
8939;DHT22;4504;48.810;9.172;2023-11-21T16:04:07;9.10;99.90
8939;DHT22;4504;48.810;9.172;2023-11-21T16:06:36;9.10;99.90
8939;DHT22;4504;48.810;9.172;2023-11-21T16:09:05;9.10;99.90
8939;DHT22;4504;48.810;9.172;2023-11-21T16:11:42;9.00;99.90
8939;DHT22;4504;48.810;9.172;2023-11-21T16:14:09;9.00;99.90
8939;DHT22;4504;48.810;9.172;2023-11-21T16:16:36;9.00;99.90
8939;DHT22;4504;48.810;9.172;2023-11-21T16:19:03;8.90;99.90
8939;DHT22;4504;48.810;9.172;2023-11-21T16:21:30;8.90;99.90
8939;DHT22;4504;48.810;9.172;2023-11-21T16:23:57;9.00;99.90
8939;DHT22;4504;48.810;9.172;2023-11-21T16:26:24;8.90;99.90